Happy Camp, California
Current Conditions -  °F | °C
As of 3:56 AM on Sunday 25 Jan 2015 (Local Time) from KCEC Reporting Station
Haze Haze  
Wind Chill: 47°   Ceiling: Unl
Heat Index: 47°   Visibility: 6mi
Dew Point: 45°   Wind: 0mph
Humidity: 93%   Direction: NA
Pressure: 30.11"   Gusts: NA
Location:  41.79°N, 123.38°W
Report Text: KCEC 251156Z AUTO 00000KT 6SM BR CLR 08/07 A3011 RMK AO2 SLP196 T00830072 10100 20067 58011
Loading
Personal Weather Stations






























Interactive Weather Map New forecast layout! Learn more

10-Day Weather Forecast

Advertisements
Track Severe Weather on mobile